• Join FlightAware (Why Join?)
  • Login
  • US Flag 
07:41PM EDT


 

Airport Tracker/Info


-or-


 

Live Flight TrackerFlight Track Log ✈ SKQ53 ✈ 26-Jul-2013 ✈ KMMU - KBUY

Flight Track Log - Related Links

Times and Time Zones

All times are in EDT time to prevent confusion due to time zone crossing. See the SKQ53 flight status page for this flight to view local times or setup timezone preferences in your user account.

Time Position Orientation Groundspeed Altitude Reporting Facility
EDT Latitude Longitude Course Direction KTS MPH feet Rate Location/Type
07:10AM 40.8333 -74.3500 155° Southeast 160 184 2,000  Level New York TRACON
07:11AM 40.7833 -74.3333 166° South 233 268 2,100 1,200 Climbing New York TRACON
07:13AM 40.6667 -74.3142 173° South 182 209 6,000 1,140 Climbing New York Center
07:14AM 40.6111 -74.2947 165° South 200 230 6,000  Level New York Center
07:15AM 40.5626 -74.6896 155° Southeast  Level Estimated
07:15AM 40.5450 -74.2722 165° South 237 273 6,000  Level New York Center
07:16AM 40.4814 -74.2444 162° South 243 280 6,000  Level New York Center
07:17AM 40.4258 -74.2172 160° South 243 280 6,000 960 Level New York Center
07:19AM 40.3150 -74.1625 159° South 203 234 9,000 1,380 Climbing New York Center
07:20AM 40.2625 -74.1764 191° South 167 192 10,300 960 Climbing New York Center
07:21AM 40.2097 -74.1956 196° South 182 209 11,000 300 Climbing New York Center
07:22AM 40.1489 -74.2114 191° South 215 247 11,000 3,540 Level New York Center
07:23AM 40.0878 -74.2300 193° South 241 277 18,000 1,500 Climbing New York Center
07:24AM 40.0353 -74.2439 191° South 217 250 14,000 -2,040 Descending New York Center
07:25AM 39.9781 -74.2817 207° Southwest 245 282 14,000 120 Level New York Center
07:26AM 39.9244 -74.3303 215° Southwest 245 282 14,300 1,020 Climbing New York Center
07:27AM 39.8575 -74.3969 217° Southwest 211 243 16,800 1,380 Climbing Washington Center
07:28AM 39.8122 -74.4353 213° Southwest 205 236 17,900 960 Climbing Washington Center
07:29AM 39.7772 -74.4844 227° Southwest 200 230 18,800 840 Climbing Washington Center
07:30AM 39.7400 -74.5364 227° Southwest 195 224 19,700 960 Climbing Washington Center
07:31AM 39.7008 -74.5856 224° Southwest 195 224 20,700 900 Climbing Washington Center
07:32AM 39.6597 -74.6400 226° Southwest 200 230 21,600 600 Climbing Washington Center
07:33AM 39.6206 -74.6917 225° Southwest 200 230 22,000 180 Climbing Washington Center
07:34AM 39.5753 -74.7542 227° Southwest 207 238 22,000  Level Washington Center
07:35AM 39.5275 -74.8167 225° Southwest 228 262 22,000  Level Washington Center
07:36AM 39.4781 -74.8817 225° Southwest 247 284 22,000  Level Washington Center
07:37AM 39.4283 -74.9467 225° Southwest 252 290 22,000  Level Washington Center
07:38AM 39.3786 -75.0117 225° Southwest 252 290 22,000  Level Washington Center
07:39AM 39.3289 -75.0736 224° Southwest 252 290 22,000  Level Washington Center
07:40AM 39.2792 -75.1411 226° Southwest 252 290 22,000  Level Washington Center
07:41AM 39.2317 -75.2031 225° Southwest 252 290 22,000  Level Washington Center
07:42AM 39.1817 -75.2675 225° Southwest 252 290 22,000  Level Washington Center
07:43AM 39.1339 -75.3347 228° Southwest 252 290 22,000  Level Washington Center
07:44AM 39.0842 -75.3964 224° Southwest 252 290 22,000  Level Washington Center
07:45AM 39.0319 -75.4608 224° Southwest 252 290 22,000  Level Washington Center
07:46AM 38.9842 -75.5247 226° Southwest 246 283 22,000  Level Washington Center
07:47AM 38.9361 -75.5864 225° Southwest 251 289 22,000  Level Washington Center
07:48AM 38.8861 -75.6503 225° Southwest 251 289 22,000  Level Washington Center
07:50AM 38.8278 -75.7250 225° Southwest 251 289 22,000  Level Washington Center
07:51AM 38.7778 -75.7833 222° Southwest 251 289 22,000  Level Washington Center
07:52AM 38.7275 -75.8497 226° Southwest 251 289 22,000  Level Washington Center
07:53AM 38.6772 -75.9161 226° Southwest 251 289 22,000  Level Washington Center
07:54AM 38.6272 -75.9769 224° Southwest 251 289 22,000  Level Washington Center
07:55AM 38.5728 -76.0458 225° Southwest 251 289 22,000  Level Washington Center
07:56AM 38.5203 -76.1064 222° Southwest 251 289 22,000  Level Washington Center
07:57AM 38.4700 -76.1725 226° Southwest 251 289 22,000  Level Washington Center
07:58AM 38.4197 -76.2356 225° Southwest 251 289 22,000  Level Washington Center
07:59AM 38.3672 -76.2986 223° Southwest 256 295 22,000  Level Washington Center
08:00AM 38.3167 -76.3644 226° Southwest 256 295 22,000  Level Washington Center
08:01AM 38.2683 -76.4222 223° Southwest 249 287 22,000  Level Washington Center
08:02AM 38.2178 -76.4875 225° Southwest 254 292 22,000  Level Washington Center
08:03AM 38.1467 -76.5211 200° South 259 298 22,000  Level Washington Center
08:04AM 38.0775 -76.5544 201° Southwest 264 304 22,000  Level Washington Center
08:05AM 38.0083 -76.5906 202° Southwest 269 310 22,000  Level Washington Center
08:06AM 37.9539 -76.6453 218° Southwest 264 304 22,000  Level Washington Center
08:07AM 37.9156 -76.7158 235° Southwest 248 285 22,000  Level Washington Center
08:08AM 37.8689 -76.7886 231° Southwest 256 295 22,000 -360 Level Washington Center
08:09AM 37.8244 -76.8589 231° Southwest 261 300 21,300 -1,020 Descending Washington Center
08:10AM 37.7756 -76.9369 232° Southwest 272 313 20,000 -660 Descending Washington Center
08:11AM 37.7247 -77.0122 230° Southwest 282 325 20,000  Level Washington Center
08:12AM 37.6822 -77.0769 230° Southwest 276 318 20,000  Level Washington Center
08:13AM 37.6375 -77.1444 230° Southwest 276 318 20,000  Level Washington Center
08:14AM 37.5928 -77.2142 231° Southwest 271 312 20,000  Level Washington Center
08:15AM 37.5461 -77.2839 230° Southwest 271 312 20,000  Level Washington Center
08:16AM 37.5014 -77.3508 230° Southwest 266 306 20,000  Level Washington Center
08:17AM 37.4564 -77.4206 231° Southwest 261 300 20,000  Level Washington Center
08:18AM 37.4094 -77.4875 229° Southwest 261 300 20,000  Level Washington Center
08:19AM 37.3647 -77.5569 231° Southwest 256 295 20,000  Level Washington Center
08:20AM 37.3197 -77.6236 230° Southwest 256 295 20,000  Level Washington Center
08:21AM 37.2769 -77.6878 230° Southwest 256 295 20,000  Level Washington Center
08:22AM 37.2256 -77.7644 230° Southwest 256 295 20,000  Level Washington Center
08:23AM 37.1825 -77.8311 231° Southwest 256 295 20,000  Level Washington Center
08:24AM 37.1375 -77.8975 230° Southwest 256 295 20,000  Level Washington Center
08:25AM 37.0903 -77.9664 229° Southwest 256 295 20,000 -180 Level Washington Center
08:26AM 37.0450 -78.0328 229° Southwest 256 295 19,700 -600 Descending Washington Center
08:27AM 36.9956 -78.1039 229° Southwest 256 295 18,800 -1,200 Descending Washington Center
08:28AM 36.9458 -78.1831 232° Southwest 280 322 17,300 -1,500 Descending Washington Center
08:29AM 36.8942 -78.2592 230° Southwest 291 335 15,900 -1,500 Descending Washington Center
08:30AM 36.8425 -78.3325 229° Southwest 291 335 14,400 -1,500 Descending Washington Center
08:31AM 36.7886 -78.4086 229° Southwest 291 335 12,900 -1,440 Descending Washington Center
08:32AM 36.7386 -78.4844 231° Southwest 291 335 11,600 -1,380 Descending Washington Center
08:33AM 36.6889 -78.5603 231° Southwest 291 335 10,200 -1,440 Descending Washington Center
08:34AM 36.6436 -78.6233 228° Southwest 292 336 8,700 -1,440 Descending Washington Center
08:35AM 36.5936 -78.6939 229° Southwest 281 323 7,300 -1,500 Descending Washington Center
08:35AM 36.5525 -78.7489 227° Southwest 261 300 6,100 -840 Descending Washington Center
08:36AM 36.5178 -78.7992 229° Southwest 239 275 6,000 -60 Descending Washington Center
08:37AM 36.4744 -78.8647 231° Southwest 223 257 6,000  Level Washington Center
08:38AM 36.4289 -78.9247 227° Southwest 230 265 6,000 -600 Level Washington Center
08:39AM 36.3897 -78.9797 229° Southwest 246 283 4,900 -960 Descending Washington Center
08:40AM 36.3356 -79.0547 228° Southwest 256 295 4,100 -900 Descending Washington Center
08:41AM 36.2919 -79.1147 228° Southwest 238 274 3,100 -540 Descending Washington Center
08:42AM 36.2483 -79.1772 229° Southwest 236 272 3,100  Level Washington Center
08:44AM 36.1986 -79.2419 226° Southwest 236 272 3,100  Level Washington Center
08:45AM 36.1547 -79.3042 229° Southwest 231 266 3,100  Level Washington Center
08:47AM 36.0671 -79.4163 219° Southwest  Level FlightAware Approximate
08:54AM 36.0333 -79.4667 231° Southwest  Level FlightAware Approximate
08:55AM 36.0485 -79.4749 231° Southwest  Level Estimated
08:56AM 36.0485 -79.4749 231° Southwest  Level Estimated
08:57AM 36.0485 -79.4749 231° Southwest  Level Estimated
08:58AM 36.0485 -79.4749 231° Southwest  Level Estimated
08:59AM 36.0485 -79.4749 231° Southwest  Level Estimated
09:00AM 36.0485 -79.4749 231° Southwest  Level Estimated